createdAt,value
2019-06-26T00:00:10.768Z,9.25
2019-06-26T00:02:18.172Z,7.28
2019-06-26T00:04:25.628Z,11.75
2019-06-26T00:06:33.374Z,10.23
2019-06-26T00:08:41.090Z,8.80
2019-06-26T00:10:49.047Z,10.10
2019-06-26T00:12:56.697Z,9.28
2019-06-26T00:15:04.234Z,9.13
2019-06-26T00:17:11.590Z,8.70
2019-06-26T00:19:18.984Z,9.05
2019-06-26T00:21:26.351Z,8.30
2019-06-26T00:23:34.871Z,7.85
2019-06-26T00:25:42.842Z,9.28
2019-06-26T00:27:50.225Z,12.98
2019-06-26T00:29:57.559Z,9.13
2019-06-26T00:32:04.955Z,9.80
2019-06-26T00:34:12.427Z,8.93
2019-06-26T00:36:20.293Z,9.28
2019-06-26T00:38:28.069Z,7.95
2019-06-26T00:40:35.922Z,11.45
2019-06-26T00:42:43.705Z,15.85
2019-06-26T00:44:51.516Z,10.08
2019-06-26T00:46:59.273Z,10.50
2019-06-26T00:49:06.817Z,9.73
2019-06-26T00:51:14.601Z,10.28
2019-06-26T00:53:21.987Z,9.03
2019-06-26T00:55:29.336Z,10.08
2019-06-26T00:57:36.989Z,10.20
2019-06-26T00:59:44.549Z,15.40
2019-06-26T01:01:52.599Z,8.18
2019-06-26T01:04:04.435Z,12.05
2019-06-26T01:06:31.007Z,8.78
2019-06-26T01:08:38.707Z,9.20
2019-06-26T01:10:46.349Z,11.78
2019-06-26T01:12:54.664Z,14.25
2019-06-26T01:15:02.395Z,10.45
2019-06-26T01:17:10.143Z,13.05
2019-06-26T01:19:17.909Z,9.63
2019-06-26T01:21:25.666Z,8.95
2019-06-26T01:23:33.379Z,10.13
2019-06-26T01:25:41.280Z,9.08
2019-06-26T01:27:49.478Z,8.45
2019-06-26T01:29:56.961Z,9.55
2019-06-26T01:32:04.627Z,11.80
2019-06-26T01:34:12.394Z,12.73
2019-06-26T01:36:20.074Z,9.33
2019-06-26T01:38:27.527Z,11.15
2019-06-26T01:40:34.879Z,10.50
2019-06-26T01:42:42.290Z,11.33
2019-06-26T01:44:49.702Z,9.95
2019-06-26T01:46:57.081Z,9.90
2019-06-26T01:49:04.675Z,10.98
2019-06-26T01:51:12.284Z,11.20
2019-06-26T01:53:20.009Z,8.45
2019-06-26T01:55:27.699Z,13.10
2019-06-26T01:57:35.611Z,11.65
2019-06-26T01:59:43.323Z,12.85
2019-06-26T02:01:50.725Z,11.50
2019-06-26T02:03:58.126Z,10.13
2019-06-26T02:06:05.634Z,14.20
2019-06-26T02:08:13.068Z,11.08
2019-06-26T02:10:20.935Z,9.00
2019-06-26T02:12:28.383Z,10.85
2019-06-26T02:14:35.813Z,10.58
2019-06-26T02:16:43.504Z,10.53
2019-06-26T02:18:55.335Z,10.68
2019-06-26T02:21:03.205Z,12.68
2019-06-26T02:23:10.952Z,10.35
2019-06-26T02:25:18.916Z,10.38
2019-06-26T02:27:26.742Z,11.20
2019-06-26T02:29:34.551Z,11.85
2019-06-26T02:31:42.028Z,13.88
2019-06-26T02:33:49.470Z,9.98
2019-06-26T02:35:56.765Z,11.85
2019-06-26T02:38:04.171Z,13.93
2019-06-26T02:40:12.359Z,11.45
2019-06-26T02:42:19.799Z,11.18
2019-06-26T02:44:27.225Z,12.47
2019-06-26T02:46:34.712Z,9.25
2019-06-26T02:48:42.110Z,8.83
2019-06-26T02:50:49.993Z,12.63
2019-06-26T02:52:57.717Z,11.12
2019-06-26T02:55:05.860Z,11.90
2019-06-26T02:57:13.308Z,9.98
2019-06-26T02:59:22.063Z,13.75
2019-06-26T03:01:29.807Z,10.95
2019-06-26T03:03:37.523Z,10.70
2019-06-26T03:05:44.854Z,11.68
2019-06-26T03:07:52.427Z,12.85
2019-06-26T03:10:00.152Z,13.22
2019-06-26T03:12:08.599Z,11.38
2019-06-26T03:14:16.292Z,13.70
2019-06-26T03:16:23.640Z,12.07
2019-06-26T03:18:31.013Z,11.93
2019-06-26T03:20:43.844Z,11.63
2019-06-26T03:22:51.364Z,13.58
2019-06-26T03:24:58.772Z,12.50
2019-06-26T03:27:09.038Z,11.80
2019-06-26T03:29:15.656Z,15.32
2019-06-26T03:31:23.185Z,10.80
2019-06-26T03:33:30.609Z,11.68
2019-06-26T03:35:40.730Z,12.70
2019-06-26T03:37:47.652Z,13.35
2019-06-26T03:39:55.369Z,12.43
2019-06-26T03:42:02.845Z,15.53
2019-06-26T03:44:10.320Z,13.08
2019-06-26T03:46:17.773Z,12.35
2019-06-26T03:48:25.177Z,11.83
2019-06-26T03:50:32.605Z,14.43
2019-06-26T03:52:40.233Z,12.37
2019-06-26T03:54:48.061Z,15.20
2019-06-26T03:56:55.782Z,11.80
2019-06-26T03:59:03.505Z,13.85
2019-06-26T04:01:11.336Z,18.12
2019-06-26T04:03:19.017Z,17.80
2019-06-26T04:05:26.890Z,10.43
2019-06-26T04:07:34.529Z,12.90
2019-06-26T04:09:42.216Z,13.90
2019-06-26T04:11:50.142Z,13.78
2019-06-26T04:13:57.771Z,15.40
2019-06-26T04:16:05.830Z,16.55
2019-06-26T04:18:13.257Z,15.03
2019-06-26T04:20:21.137Z,18.37
2019-06-26T04:22:28.944Z,14.25
2019-06-26T04:24:36.523Z,14.15
2019-06-26T04:26:44.122Z,15.72
2019-06-26T04:28:51.511Z,18.62
2019-06-26T04:30:58.898Z,18.42
2019-06-26T04:33:06.383Z,12.85
2019-06-26T04:35:15.232Z,16.20
2019-06-26T04:37:22.728Z,14.45
2019-06-26T04:39:30.256Z,16.07
2019-06-26T04:41:37.746Z,14.90
2019-06-26T04:43:45.256Z,12.43
2019-06-26T04:45:57.950Z,15.75
2019-06-26T04:48:02.782Z,17.05
2019-06-26T04:50:10.802Z,16.77
2019-06-26T04:52:18.587Z,18.98
2019-06-26T04:54:26.331Z,18.10
2019-06-26T04:56:34.230Z,13.95
2019-06-26T04:58:42.053Z,13.53
2019-06-26T05:00:49.664Z,16.37
2019-06-26T05:02:57.445Z,14.30
2019-06-26T05:05:05.994Z,14.60
2019-06-26T05:07:13.521Z,14.33
2019-06-26T05:09:21.344Z,14.53
2019-06-26T05:11:29.157Z,17.40
2019-06-26T05:13:36.674Z,16.27
2019-06-26T05:15:44.241Z,14.63
2019-06-26T05:17:51.938Z,15.20
2019-06-26T05:20:00.124Z,21.23
2019-06-26T05:22:08.048Z,18.73
2019-06-26T05:24:15.567Z,13.55
2019-06-26T05:26:23.179Z,16.42
2019-06-26T05:28:30.804Z,17.92
2019-06-26T05:30:38.615Z,18.45
2019-06-26T05:32:46.425Z,18.67
2019-06-26T05:34:54.109Z,14.50
2019-06-26T05:37:01.881Z,18.50
2019-06-26T05:39:10.181Z,19.62
2019-06-26T05:41:18.045Z,21.25
2019-06-26T05:43:26.110Z,17.57
2019-06-26T05:45:33.989Z,16.87
2019-06-26T05:47:41.922Z,21.37
2019-06-26T05:49:49.608Z,19.42
2019-06-26T05:51:57.345Z,22.80
2019-06-26T05:54:05.404Z,19.02
2019-06-26T05:56:13.117Z,22.62
2019-06-26T05:58:20.888Z,21.25
2019-06-26T06:00:28.820Z,19.15
2019-06-26T06:02:36.667Z,23.32
2019-06-26T06:04:44.669Z,23.05
2019-06-26T06:06:52.584Z,18.75
2019-06-26T06:09:00.262Z,22.25
2019-06-26T06:11:08.019Z,18.70
2019-06-26T06:13:15.818Z,18.42
2019-06-26T06:15:41.246Z,20.23
2019-06-26T06:17:49.084Z,19.80
2019-06-26T06:19:56.806Z,22.22
2019-06-26T06:22:04.672Z,23.30
2019-06-26T06:24:12.652Z,22.73
2019-06-26T06:26:20.476Z,22.52
2019-06-26T06:28:28.342Z,22.98
2019-06-26T06:30:36.355Z,21.80
2019-06-26T06:32:44.758Z,20.75
2019-06-26T06:34:52.591Z,27.07
2019-06-26T06:37:00.480Z,22.95
2019-06-26T06:39:09.279Z,20.88
2019-06-26T06:41:17.109Z,20.10
2019-06-26T06:43:25.019Z,25.95
2019-06-26T06:45:33.086Z,22.30
2019-06-26T06:47:40.850Z,20.70
2019-06-26T06:49:48.650Z,18.57
2019-06-26T06:51:56.485Z,21.07
2019-06-26T06:54:04.364Z,20.30
2019-06-26T06:56:12.318Z,21.77
2019-06-26T06:58:20.081Z,20.62
2019-06-26T07:00:28.355Z,19.40
2019-06-26T07:02:36.501Z,20.55
2019-06-26T07:04:44.623Z,22.50
2019-06-26T07:06:52.885Z,23.02
2019-06-26T07:09:01.283Z,20.77
2019-06-26T07:11:09.146Z,24.87
2019-06-26T07:13:16.863Z,27.10
2019-06-26T07:15:25.640Z,22.50
2019-06-26T07:17:33.724Z,22.35
2019-06-26T07:19:41.782Z,21.07
2019-06-26T07:21:49.849Z,27.35
2019-06-26T07:23:57.959Z,21.45
2019-06-26T07:26:05.944Z,21.37
2019-06-26T07:28:13.835Z,20.72
2019-06-26T07:30:22.478Z,16.67
2019-06-26T07:32:30.299Z,22.00
2019-06-26T07:34:38.168Z,21.68
2019-06-26T07:36:46.172Z,26.70
2019-06-26T07:38:54.901Z,20.20
2019-06-26T07:41:03.126Z,20.92
2019-06-26T07:43:11.258Z,23.83
2019-06-26T07:45:19.554Z,21.15
2019-06-26T07:47:41.801Z,26.12
2019-06-26T07:49:37.177Z,29.92
2019-06-26T07:51:45.060Z,18.90
2019-06-26T07:53:52.919Z,19.42
2019-06-26T07:56:42.597Z,25.08
2019-06-26T07:58:50.857Z,23.57
2019-06-26T08:00:58.546Z,22.30
2019-06-26T08:03:06.279Z,20.95
2019-06-26T08:05:14.851Z,28.45
2019-06-26T08:07:22.592Z,22.62
2019-06-26T08:09:30.266Z,26.55
2019-06-26T08:11:37.879Z,22.00
2019-06-26T08:13:45.556Z,22.70
2019-06-26T08:15:53.342Z,22.95
2019-06-26T08:18:01.712Z,18.67
2019-06-26T08:20:09.879Z,20.85
2019-06-26T08:22:17.300Z,19.27
2019-06-26T08:24:25.098Z,20.40
2019-06-26T08:26:32.936Z,20.60
2019-06-26T08:28:40.775Z,17.25
2019-06-26T08:30:48.285Z,22.13
2019-06-26T08:32:55.816Z,27.82
2019-06-26T08:35:03.915Z,18.73
2019-06-26T08:37:11.416Z,17.85
2019-06-26T08:39:18.848Z,20.30
2019-06-26T08:41:26.452Z,19.62
2019-06-26T08:43:34.417Z,21.97
2019-06-26T08:48:22.625Z,19.20
2019-06-26T08:50:23.178Z,16.97
2019-06-26T08:52:30.671Z,18.07
2019-06-26T08:54:38.248Z,20.30
2019-06-26T08:56:46.145Z,18.12
2019-06-26T08:58:53.858Z,18.73
2019-06-26T09:01:01.616Z,20.50
2019-06-26T09:03:09.215Z,18.42
2019-06-26T09:05:18.115Z,14.25
2019-06-26T09:07:25.663Z,19.20
2019-06-26T09:09:33.175Z,18.15
2019-06-26T09:11:41.134Z,16.35
2019-06-26T09:13:48.650Z,20.77
2019-06-26T09:15:56.214Z,18.12
2019-06-26T09:18:03.696Z,17.42
2019-06-26T09:20:11.731Z,17.15
2019-06-26T09:22:19.312Z,21.37
2019-06-26T09:24:27.013Z,17.45
2019-06-26T09:26:35.787Z,19.82
2019-06-26T09:28:43.428Z,14.87
2019-06-26T09:30:51.226Z,25.80
2019-06-26T09:32:58.713Z,18.87
2019-06-26T09:35:06.992Z,21.00
2019-06-26T09:37:14.541Z,20.45
2019-06-26T09:39:21.974Z,19.12
2019-06-26T09:41:29.555Z,18.57
2019-06-26T09:43:37.073Z,19.92
2019-06-26T09:45:44.574Z,18.67
2019-06-26T09:47:53.162Z,22.58
2019-06-26T09:50:00.822Z,18.15
2019-06-26T09:52:08.960Z,22.75
2019-06-26T09:54:16.448Z,18.67
2019-06-26T09:56:23.967Z,17.45
2019-06-26T09:58:31.498Z,17.48
2019-06-26T10:00:39.375Z,13.90
2019-06-26T10:02:46.808Z,17.52
2019-06-26T10:04:54.278Z,17.40
2019-06-26T10:07:02.062Z,18.20
2019-06-26T10:09:10.754Z,18.95
2019-06-26T10:11:18.340Z,19.75
2019-06-26T10:13:25.953Z,17.42
2019-06-26T10:15:34.458Z,14.58
2019-06-26T10:17:42.606Z,16.82
2019-06-26T10:19:53.895Z,15.58
2019-06-26T10:22:00.400Z,15.60
2019-06-26T10:24:08.117Z,15.83
2019-06-26T10:26:15.821Z,18.82
2019-06-26T10:28:23.560Z,16.50
2019-06-26T10:30:31.345Z,17.70
2019-06-26T10:32:38.971Z,16.97
2019-06-26T10:34:47.798Z,18.80
2019-06-26T10:36:56.206Z,16.65
2019-06-26T10:39:11.304Z,15.78
2019-06-26T10:41:23.573Z,16.50
2019-06-26T10:43:34.105Z,16.27
2019-06-26T10:45:41.625Z,16.62
2019-06-26T10:47:49.075Z,17.65
2019-06-26T10:49:56.468Z,19.48
2019-06-26T10:52:05.807Z,18.65
2019-06-26T10:54:13.403Z,17.90
2019-06-26T10:56:21.087Z,15.65
2019-06-26T10:58:28.940Z,20.88
2019-06-26T11:00:36.648Z,20.72
2019-06-26T11:02:44.249Z,19.07
2019-06-26T11:04:51.759Z,20.65
2019-06-26T11:06:59.683Z,16.85
2019-06-26T11:09:10.395Z,21.68
2019-06-26T11:11:18.072Z,17.50
2019-06-26T11:13:25.449Z,18.90
2019-06-26T11:15:33.036Z,17.98
2019-06-26T11:17:42.640Z,19.62
2019-06-26T11:19:50.119Z,18.10
2019-06-26T11:21:57.768Z,18.55
2019-06-26T11:24:05.437Z,16.52
2019-06-26T11:26:12.885Z,18.60
2019-06-26T11:28:20.368Z,23.73
2019-06-26T11:30:28.316Z,20.15
2019-06-26T11:32:35.920Z,18.75
2019-06-26T11:34:43.555Z,16.80
2019-06-26T11:37:03.066Z,19.55
2019-06-26T11:39:00.795Z,18.87
2019-06-26T11:41:08.855Z,23.35
2019-06-26T11:43:16.581Z,17.92
2019-06-26T11:45:24.381Z,16.37
2019-06-26T11:47:31.962Z,12.90
2019-06-26T11:49:39.408Z,14.45
2019-06-26T11:51:47.040Z,16.10
2019-06-26T11:53:54.527Z,17.48
2019-06-26T11:56:02.134Z,14.43
2019-06-26T11:58:09.896Z,12.50
2019-06-26T12:00:20.055Z,14.63
2019-06-26T12:02:27.566Z,13.08
2019-06-26T12:04:35.199Z,17.10
2019-06-26T12:06:45.914Z,14.10
2019-06-26T12:08:52.267Z,16.23
2019-06-26T12:11:00.079Z,18.77
2019-06-26T12:13:07.714Z,15.48
2019-06-26T12:15:18.916Z,15.50
2019-06-26T12:17:26.659Z,19.00
2019-06-26T12:19:34.551Z,16.73
2019-06-26T12:21:42.327Z,16.70
2019-06-26T12:23:50.069Z,14.33
2019-06-26T12:25:57.594Z,18.15
2019-06-26T12:28:05.483Z,13.88
2019-06-26T12:30:13.497Z,13.95
2019-06-26T12:32:21.056Z,16.93
2019-06-26T12:34:28.750Z,13.35
2019-06-26T12:36:36.607Z,15.90
2019-06-26T12:38:44.189Z,18.57
2019-06-26T12:40:51.719Z,16.65
2019-06-26T12:42:59.247Z,13.72
2019-06-26T12:45:08.229Z,17.90
2019-06-26T12:47:15.923Z,16.37
2019-06-26T12:49:23.605Z,18.17
2019-06-26T12:51:31.385Z,15.05
2019-06-26T12:53:39.005Z,15.72
2019-06-26T12:55:46.525Z,14.58
2019-06-26T12:58:02.449Z,13.55
2019-06-26T13:00:03.731Z,14.03
2019-06-26T13:02:11.515Z,13.72
2019-06-26T13:04:20.210Z,12.60
2019-06-26T13:06:28.057Z,11.55
2019-06-26T13:08:35.643Z,12.55
2019-06-26T13:10:49.661Z,14.28
2019-06-26T13:12:53.124Z,11.90
2019-06-26T13:15:00.767Z,12.43
2019-06-26T13:17:08.337Z,11.20
2019-06-26T13:19:16.114Z,12.40
2019-06-26T13:21:23.671Z,12.18
2019-06-26T13:23:31.318Z,11.33
2019-06-26T13:25:38.756Z,13.80
2019-06-26T13:27:46.484Z,12.98
2019-06-26T13:29:54.331Z,11.80
2019-06-26T13:32:02.099Z,13.60
2019-06-26T13:34:09.620Z,19.00
2019-06-26T13:36:17.034Z,14.25
2019-06-26T13:38:27.094Z,15.88
2019-06-26T13:40:34.098Z,10.95
2019-06-26T13:42:41.584Z,12.10
2019-06-26T13:45:13.579Z,12.78
2019-06-26T13:47:21.206Z,12.05
2019-06-26T13:49:28.667Z,11.55
2019-06-26T13:51:36.320Z,13.35
2019-06-26T13:53:43.925Z,15.32
2019-06-26T13:55:51.366Z,12.63
2019-06-26T13:57:58.954Z,12.58
2019-06-26T14:00:10.422Z,14.80
2019-06-26T14:02:19.928Z,18.62
2019-06-26T14:04:27.198Z,15.10
2019-06-26T14:06:35.301Z,17.98
2019-06-26T14:08:42.788Z,15.80
2019-06-26T14:10:50.332Z,14.28
2019-06-26T14:12:57.979Z,14.23
2019-06-26T14:15:06.010Z,13.95
2019-06-26T14:17:13.493Z,11.43
2019-06-26T14:19:21.110Z,12.53
2019-06-26T14:21:29.791Z,14.80
2019-06-26T14:23:38.044Z,15.20
2019-06-26T14:25:45.738Z,15.28
2019-06-26T14:27:53.989Z,15.75
2019-06-26T14:30:01.518Z,13.85
2019-06-26T14:32:08.806Z,17.15
2019-06-26T14:34:16.095Z,15.05
2019-06-26T14:36:23.653Z,11.25
2019-06-26T14:38:31.100Z,16.93
2019-06-26T14:40:38.454Z,14.23
2019-06-26T14:42:45.855Z,12.90
2019-06-26T14:44:53.436Z,14.05
2019-06-26T14:47:00.815Z,17.25
2019-06-26T14:49:08.230Z,13.22
2019-06-26T14:51:15.614Z,13.65
2019-06-26T14:53:23.901Z,15.50
2019-06-26T14:55:31.279Z,16.80
2019-06-26T14:57:39.174Z,14.75
2019-06-26T14:59:46.911Z,14.63
2019-06-26T15:01:54.378Z,20.65
2019-06-26T15:04:01.853Z,14.03
2019-06-26T15:06:16.430Z,16.17
2019-06-26T15:08:18.862Z,16.65
2019-06-26T15:10:26.518Z,14.60
2019-06-26T15:12:33.949Z,16.67
2019-06-26T15:14:42.256Z,14.00
2019-06-26T15:16:50.233Z,14.78
2019-06-26T15:18:58.125Z,14.95
2019-06-26T15:21:05.525Z,16.32
2019-06-26T15:23:12.993Z,12.58
2019-06-26T15:25:21.117Z,14.03
2019-06-26T15:27:28.614Z,16.70
2019-06-26T15:29:36.236Z,17.73
2019-06-26T15:31:44.076Z,16.10
2019-06-26T15:33:51.553Z,14.40
2019-06-26T15:35:59.222Z,17.87
2019-06-26T15:38:07.302Z,15.32
2019-06-26T15:40:15.508Z,15.85
2019-06-26T15:42:22.845Z,12.23
2019-06-26T15:44:30.372Z,15.10
2019-06-26T15:46:37.601Z,10.90
2019-06-26T15:48:44.804Z,11.93
2019-06-26T15:50:53.354Z,23.20
2019-06-26T15:53:00.861Z,19.80
2019-06-26T15:55:09.153Z,11.75
2019-06-26T15:57:16.546Z,14.63
2019-06-26T15:59:24.428Z,15.70
2019-06-26T16:01:32.633Z,11.15
2019-06-26T16:03:40.124Z,14.95
2019-06-26T16:05:47.348Z,12.93
2019-06-26T16:07:55.157Z,14.30
2019-06-26T16:10:02.964Z,15.48
2019-06-26T16:12:10.688Z,11.57
2019-06-26T16:14:18.237Z,15.28
2019-06-26T16:16:25.914Z,13.15
2019-06-26T16:18:38.368Z,13.62
2019-06-26T16:20:46.216Z,13.50
2019-06-26T16:22:53.969Z,16.17
2019-06-26T16:25:01.645Z,16.80
2019-06-26T16:27:09.371Z,14.15
2019-06-26T16:29:16.723Z,14.87
2019-06-26T16:31:24.604Z,21.45
2019-06-26T16:33:32.215Z,11.57
2019-06-26T16:35:39.581Z,17.90
2019-06-26T16:37:47.427Z,20.43
2019-06-26T16:39:56.168Z,16.32
2019-06-26T16:42:04.476Z,19.42
2019-06-26T16:44:13.150Z,13.88
2019-06-26T16:46:21.810Z,14.78
2019-06-26T16:48:30.081Z,16.32
2019-06-26T16:50:38.559Z,12.35
2019-06-26T16:52:49.526Z,14.78
2019-06-26T16:54:56.490Z,18.73
2019-06-26T16:57:04.947Z,15.35
2019-06-26T16:59:13.737Z,14.63
2019-06-26T17:01:21.339Z,16.10
2019-06-26T17:03:29.049Z,16.07
2019-06-26T17:05:37.530Z,13.03
2019-06-26T17:07:45.250Z,15.60
2019-06-26T17:09:52.820Z,22.13
2019-06-26T17:12:00.388Z,11.38
2019-06-26T17:14:08.255Z,13.85
2019-06-26T17:16:16.477Z,13.10
2019-06-26T17:18:24.652Z,16.35
2019-06-26T17:20:32.858Z,13.98
2019-06-26T17:22:40.676Z,13.78
2019-06-26T17:24:48.130Z,14.95
2019-06-26T17:26:59.285Z,14.20
2019-06-26T17:29:05.684Z,13.10
2019-06-26T17:31:13.873Z,16.90
2019-06-26T17:33:21.412Z,15.90
2019-06-26T17:35:29.223Z,12.10
2019-06-26T17:37:37.046Z,15.55
2019-06-26T17:39:44.829Z,12.65
2019-06-26T17:41:52.649Z,12.50
2019-06-26T17:44:00.305Z,15.63
2019-06-26T17:46:08.532Z,13.95
2019-06-26T17:48:16.293Z,10.82
2019-06-26T17:50:24.604Z,17.10
2019-06-26T17:52:35.611Z,22.58
2019-06-26T17:54:41.934Z,39.33
2019-06-26T17:56:50.945Z,31.33
2019-06-26T17:58:58.836Z,29.50
2019-06-26T18:01:06.833Z,24.92
2019-06-26T18:03:15.096Z,17.50
2019-06-26T18:05:22.541Z,14.80
2019-06-26T18:07:30.043Z,20.80
2019-06-26T18:09:37.637Z,16.17
2019-06-26T18:11:45.112Z,14.13
2019-06-26T18:15:54.119Z,15.35
2019-06-26T18:18:02.235Z,13.38
2019-06-26T18:20:10.377Z,11.68
2019-06-26T18:22:18.652Z,14.83
2019-06-26T18:24:26.871Z,14.75
2019-06-26T18:26:35.360Z,14.73
2019-06-26T18:28:43.270Z,19.35
2019-06-26T18:30:51.587Z,16.57
2019-06-26T18:32:59.657Z,15.18
2019-06-26T18:35:07.767Z,13.10
2019-06-26T18:37:16.806Z,17.42
2019-06-26T18:39:25.351Z,15.72
2019-06-26T18:41:43.519Z,12.85
2019-06-26T18:43:51.899Z,16.35
2019-06-26T18:45:59.941Z,14.43
2019-06-26T18:48:07.790Z,16.02
2019-06-26T18:50:15.931Z,15.03
2019-06-26T18:52:24.017Z,16.17
2019-06-26T18:54:32.090Z,14.47
2019-06-26T18:56:46.227Z,19.40
2019-06-26T18:58:57.259Z,14.23
2019-06-26T19:01:05.525Z,12.82
2019-06-26T19:03:13.395Z,16.57
2019-06-26T19:05:22.428Z,13.30
2019-06-26T19:07:31.071Z,14.03
2019-06-26T19:09:38.676Z,12.20
2019-06-26T19:11:46.549Z,16.97
2019-06-26T19:13:55.482Z,14.83
2019-06-26T19:16:04.712Z,16.70
2019-06-26T19:18:12.629Z,15.72
2019-06-26T19:20:21.346Z,17.23
2019-06-26T19:22:29.462Z,16.52
2019-06-26T19:24:37.620Z,17.50
2019-06-26T19:26:46.861Z,18.80
2019-06-26T19:28:55.080Z,15.63
2019-06-26T19:31:03.172Z,12.47
2019-06-26T19:33:11.030Z,17.57
2019-06-26T19:35:20.483Z,15.48
2019-06-26T19:37:28.455Z,15.32
2019-06-26T19:39:37.132Z,15.93
2019-06-26T19:41:44.990Z,15.05
2019-06-26T19:43:52.566Z,17.25
2019-06-26T19:46:00.718Z,13.85
2019-06-26T19:48:08.678Z,14.45
2019-06-26T19:50:17.105Z,16.37
2019-06-26T19:52:25.479Z,16.50
2019-06-26T19:54:33.813Z,15.68
2019-06-26T19:56:41.651Z,16.80
2019-06-26T19:58:49.317Z,17.30
2019-06-26T20:00:59.795Z,13.98
2019-06-26T20:03:12.099Z,13.95
2019-06-26T20:05:20.448Z,14.13
2019-06-26T20:07:28.396Z,15.58
2019-06-26T20:09:37.673Z,21.05
2019-06-26T20:11:45.641Z,13.22
2019-06-26T20:13:57.931Z,20.52
2019-06-26T20:16:08.700Z,17.82
2019-06-26T20:18:16.351Z,15.20
2019-06-26T20:20:24.362Z,16.30
2019-06-26T20:22:34.153Z,15.10
2019-06-26T20:24:44.654Z,14.55
2019-06-26T20:26:55.787Z,13.70
2019-06-26T20:29:03.644Z,15.72
2019-06-26T20:31:23.718Z,19.23
2019-06-26T20:33:31.924Z,15.18
2019-06-26T20:35:39.927Z,21.48
2019-06-26T20:37:48.119Z,14.50
2019-06-26T20:39:56.134Z,16.10
2019-06-26T20:42:03.990Z,17.95
2019-06-26T20:44:11.716Z,15.98
2019-06-26T20:46:19.591Z,17.62
2019-06-26T20:48:27.410Z,15.80
2019-06-26T20:50:35.503Z,13.80
2019-06-26T20:52:43.432Z,17.35
2019-06-26T20:55:00.962Z,15.23
2019-06-26T20:57:01.253Z,14.87
2019-06-26T20:59:21.836Z,20.60
2019-06-26T21:01:32.331Z,16.45
2019-06-26T21:03:43.660Z,17.50
2019-06-26T21:06:02.975Z,15.98
2019-06-26T21:08:13.872Z,19.23
2019-06-26T21:10:22.252Z,22.90
2019-06-26T21:12:30.186Z,18.27
2019-06-26T21:14:37.545Z,17.05
2019-06-26T21:16:44.965Z,15.65
2019-06-26T21:18:52.243Z,15.28
2019-06-26T21:21:00.091Z,18.32
2019-06-26T21:23:23.772Z,20.65
2019-06-26T21:25:33.337Z,15.03
2019-06-26T21:27:45.346Z,13.35
2019-06-26T21:29:52.689Z,13.88
2019-06-26T21:32:00.081Z,20.68
2019-06-26T21:34:07.459Z,17.20
2019-06-26T21:36:15.526Z,15.75
2019-06-26T21:38:22.718Z,21.35
2019-06-26T21:40:29.904Z,14.65
2019-06-26T21:42:37.381Z,16.35
2019-06-26T21:44:44.693Z,18.48
2019-06-26T21:46:51.949Z,17.80
2019-06-26T21:48:59.277Z,17.57
2019-06-26T21:51:06.637Z,16.23
2019-06-26T21:53:13.797Z,17.02
2019-06-26T21:55:33.747Z,16.97
2019-06-26T21:57:31.462Z,19.23
2019-06-26T21:59:38.707Z,15.00
2019-06-26T22:01:46.112Z,16.60
2019-06-26T22:03:53.574Z,18.37
2019-06-26T22:06:01.094Z,16.52
2019-06-26T22:08:13.426Z,23.67
2019-06-26T22:10:17.837Z,17.23
2019-06-26T22:12:41.671Z,17.32
2019-06-26T22:14:49.010Z,19.35
2019-06-26T22:17:01.273Z,18.07
2019-06-26T22:19:09.727Z,19.17
2019-06-26T22:21:17.086Z,18.30
2019-06-26T22:23:24.457Z,17.60
2019-06-26T22:25:31.629Z,15.63
2019-06-26T22:27:44.428Z,17.42
2019-06-26T22:29:48.802Z,17.55
2019-06-26T22:31:56.352Z,20.05
2019-06-26T22:34:04.116Z,16.85
2019-06-26T22:36:20.151Z,21.10
2019-06-26T22:38:32.095Z,21.37
2019-06-26T22:40:39.412Z,24.95
2019-06-26T22:42:46.745Z,23.22
2019-06-26T22:44:54.013Z,27.75
2019-06-26T22:47:01.349Z,18.98
2019-06-26T22:49:27.021Z,24.23
2019-06-26T22:51:34.476Z,23.18
2019-06-26T22:53:41.750Z,19.98
2019-06-26T22:56:17.248Z,23.15
2019-06-26T22:58:35.264Z,21.07
2019-06-26T23:00:42.896Z,25.00
2019-06-26T23:02:50.205Z,21.35
2019-06-26T23:05:01.019Z,24.72
2019-06-26T23:07:16.678Z,20.10
2019-06-26T23:09:24.002Z,25.57
2019-06-26T23:11:31.178Z,28.27
2019-06-26T23:13:39.902Z,27.62
2019-06-26T23:15:47.334Z,25.45
2019-06-26T23:17:54.936Z,25.52
2019-06-26T23:20:06.473Z,27.93
2019-06-26T23:22:15.894Z,32.53
2019-06-26T23:24:30.594Z,22.87
2019-06-26T23:26:48.874Z,23.32
2019-06-26T23:29:16.629Z,32.20
2019-06-26T23:31:17.121Z,21.55
2019-06-26T23:33:24.585Z,26.73
2019-06-26T23:35:32.365Z,28.42
2019-06-26T23:37:42.906Z,26.35
2019-06-26T23:39:50.591Z,27.05
2019-06-26T23:41:57.952Z,21.30
2019-06-26T23:44:05.573Z,23.32
2019-06-26T23:46:13.277Z,23.55
2019-06-26T23:48:21.029Z,20.17
2019-06-26T23:50:28.559Z,26.57
2019-06-26T23:52:35.982Z,22.10
2019-06-26T23:54:43.429Z,22.40
2019-06-26T23:56:56.392Z,22.60
2019-06-26T23:59:09.219Z,22.37
